createdAt,value
2023-05-05T00:00:34.387Z,682.6154
2023-05-05T00:01:37.389Z,693.4615
2023-05-05T00:02:40.393Z,691.9231
2023-05-05T00:03:43.394Z,688.5385
2023-05-05T00:04:46.224Z,688.3077
2023-05-05T00:05:49.178Z,677.3077
2023-05-05T00:06:52.140Z,674.0000
2023-05-05T00:07:55.092Z,674.8461
2023-05-05T00:08:58.018Z,682.7692
2023-05-05T00:10:00.989Z,710.0000
2023-05-05T00:11:03.935Z,724.3846
2023-05-05T00:12:06.886Z,719.6154
2023-05-05T00:13:09.866Z,714.9231
2023-05-05T00:14:12.806Z,710.5385
2023-05-05T00:15:15.893Z,699.8461
2023-05-05T00:16:18.700Z,693.3846
2023-05-05T00:17:21.660Z,689.8461
2023-05-05T00:18:24.640Z,692.6154
2023-05-05T00:19:27.570Z,696.6154
2023-05-05T00:20:30.529Z,695.8461
2023-05-05T00:21:33.459Z,688.0769
2023-05-05T00:22:36.441Z,682.7692
2023-05-05T00:23:39.365Z,682.9231
2023-05-05T00:24:42.354Z,682.1539
2023-05-05T00:25:45.297Z,681.6923
2023-05-05T00:26:48.237Z,685.7692
2023-05-05T00:27:51.176Z,697.7692
2023-05-05T00:28:54.187Z,700.6923
2023-05-05T00:29:57.078Z,699.1539
2023-05-05T00:31:00.067Z,698.7692
2023-05-05T00:32:02.972Z,698.0769
2023-05-05T00:33:05.972Z,702.2308
2023-05-05T00:34:08.875Z,703.6154
2023-05-05T00:35:11.873Z,702.3077
2023-05-05T00:36:14.797Z,699.6154
2023-05-05T00:37:17.729Z,702.8461
2023-05-05T00:38:20.715Z,705.4615
2023-05-05T00:39:23.655Z,706.6923
2023-05-05T00:40:26.594Z,704.9231
2023-05-05T00:41:29.550Z,704.8461
2023-05-05T00:42:32.480Z,700.4615
2023-05-05T00:43:35.463Z,698.5385
2023-05-05T00:44:38.402Z,696.1539
2023-05-05T00:45:41.365Z,692.8461
2023-05-05T00:46:44.380Z,683.3846
2023-05-05T00:47:47.240Z,681.3846
2023-05-05T00:48:50.195Z,686.1539
2023-05-05T00:49:53.182Z,684.7692
2023-05-05T00:50:56.085Z,673.1539
2023-05-05T00:51:59.048Z,671.9231
2023-05-05T00:53:01.987Z,672.3077
2023-05-05T00:54:04.942Z,676.1539
2023-05-05T00:55:07.911Z,678.9231
2023-05-05T00:56:10.850Z,676.3077
2023-05-05T00:57:13.789Z,675.8461
2023-05-05T00:58:16.731Z,676.0000
2023-05-05T00:59:19.685Z,677.5385
2023-05-05T01:00:22.627Z,678.0769
2023-05-05T01:01:25.668Z,676.7692
2023-05-05T01:02:28.623Z,679.6154
2023-05-05T01:03:31.538Z,684.4615
2023-05-05T01:04:34.469Z,686.1539
2023-05-05T01:05:37.439Z,689.8461
2023-05-05T01:06:40.392Z,701.9231
2023-05-05T01:07:43.354Z,714.8461
2023-05-05T01:08:46.316Z,712.2308
2023-05-05T01:09:53.412Z,708.2308
2023-05-05T01:10:52.216Z,708.0000
2023-05-05T01:11:55.171Z,709.3077
2023-05-05T01:12:58.169Z,707.0769
2023-05-05T01:14:01.074Z,702.4615
2023-05-05T01:15:04.034Z,695.5385
2023-05-05T01:16:07.177Z,692.5385
2023-05-05T01:17:09.990Z,690.8461
2023-05-05T01:18:12.922Z,694.1539
2023-05-05T01:19:15.871Z,694.3846
2023-05-05T01:20:18.811Z,691.6154
2023-05-05T01:21:21.779Z,685.1539
2023-05-05T01:22:24.765Z,683.8461
2023-05-05T01:23:27.712Z,682.4615
2023-05-05T01:24:30.630Z,681.9231
2023-05-05T01:25:33.596Z,679.7692
2023-05-05T01:26:36.541Z,682.0769
2023-05-05T01:27:39.547Z,685.8461
2023-05-05T01:28:42.547Z,688.2308
2023-05-05T01:29:45.428Z,689.8461
2023-05-05T01:30:48.387Z,692.2308
2023-05-05T01:31:51.402Z,691.2308
2023-05-05T01:32:54.293Z,690.4615
2023-05-05T01:33:57.273Z,691.6154
2023-05-05T01:35:00.208Z,685.3077
2023-05-05T01:36:03.246Z,679.3077
2023-05-05T01:37:06.125Z,677.3077
2023-05-05T01:38:09.088Z,671.9231
2023-05-05T01:39:12.041Z,672.2308
2023-05-05T01:40:14.990Z,671.5385
2023-05-05T01:41:17.946Z,668.3846
2023-05-05T01:42:20.918Z,670.0000
2023-05-05T01:43:23.864Z,669.4615
2023-05-05T01:44:26.812Z,671.0769
2023-05-05T01:45:29.821Z,672.5385
2023-05-05T01:46:32.770Z,671.6923
2023-05-05T01:47:35.686Z,672.5385
2023-05-05T01:48:39.750Z,680.9231
2023-05-05T01:49:41.606Z,689.6923
2023-05-05T01:50:44.559Z,688.1539
2023-05-05T01:51:47.553Z,685.3077
2023-05-05T01:52:50.490Z,675.5385
2023-05-05T01:53:53.455Z,664.6154
2023-05-05T01:54:56.384Z,656.9231
2023-05-05T01:55:59.390Z,650.9231
2023-05-05T01:57:02.475Z,654.1539
2023-05-05T01:58:05.260Z,655.0000
2023-05-05T01:59:08.210Z,660.8461
2023-05-05T02:00:11.278Z,674.3077
2023-05-05T02:01:14.163Z,678.6154
2023-05-05T02:02:17.113Z,676.2308
2023-05-05T02:03:20.177Z,674.5385
2023-05-05T02:04:23.017Z,700.5385
2023-05-05T02:05:25.976Z,724.3846
2023-05-05T02:06:28.907Z,717.8461
2023-05-05T02:07:31.849Z,704.0769
2023-05-05T02:08:34.812Z,690.7692
2023-05-05T02:09:37.778Z,676.8461
2023-05-05T02:10:40.720Z,673.0000
2023-05-05T02:11:43.698Z,672.1539
2023-05-05T02:12:46.791Z,672.1539
2023-05-05T02:13:49.598Z,671.0000
2023-05-05T02:14:52.566Z,668.9231
2023-05-05T02:15:55.512Z,669.0000
2023-05-05T02:16:58.472Z,668.9231
2023-05-05T02:18:01.440Z,673.0769
2023-05-05T02:19:04.378Z,699.3077
2023-05-05T02:20:07.505Z,719.4615
2023-05-05T02:21:10.267Z,718.1539
2023-05-05T02:22:13.228Z,727.2308
2023-05-05T02:23:16.184Z,736.5385
2023-05-05T02:24:19.173Z,735.4615
2023-05-05T02:25:22.086Z,718.5385
2023-05-05T02:26:25.049Z,706.6923
2023-05-05T02:27:28.051Z,701.0769
2023-05-05T02:28:30.974Z,698.9231
2023-05-05T02:29:33.916Z,701.6154
2023-05-05T02:30:36.925Z,702.4615
2023-05-05T02:31:39.886Z,703.7692
2023-05-05T02:32:42.827Z,704.6923
2023-05-05T02:33:45.740Z,703.7692
2023-05-05T02:34:48.733Z,701.0769
2023-05-05T02:35:51.665Z,697.3077
2023-05-05T02:36:54.637Z,691.3077
2023-05-05T02:37:57.582Z,686.0000
2023-05-05T02:39:00.503Z,681.8461
2023-05-05T02:40:03.474Z,680.0769
2023-05-05T02:41:06.443Z,674.3077
2023-05-05T02:42:09.376Z,672.3077
2023-05-05T02:43:12.363Z,671.9231
2023-05-05T02:44:15.297Z,673.6923
2023-05-05T02:45:18.276Z,673.6154
2023-05-05T02:46:21.269Z,672.0000
2023-05-05T02:47:24.180Z,669.2308
2023-05-05T02:48:27.136Z,671.2308
2023-05-05T02:49:30.078Z,729.3846
2023-05-05T02:50:33.018Z,814.7692
2023-05-05T02:51:35.959Z,844.2308
2023-05-05T02:52:38.947Z,819.6154
2023-05-05T02:53:41.963Z,779.3077
2023-05-05T02:54:44.845Z,754.3077
2023-05-05T02:55:47.782Z,739.7692
2023-05-05T02:56:50.793Z,719.0769
2023-05-05T02:57:53.698Z,709.0769
2023-05-05T02:58:56.669Z,748.3077
2023-05-05T02:59:59.618Z,761.8461
2023-05-05T03:01:02.632Z,748.7692
2023-05-05T03:02:05.582Z,731.7692
2023-05-05T03:03:08.541Z,714.4615
2023-05-05T03:04:11.427Z,710.8461
2023-05-05T03:05:14.396Z,719.3846
2023-05-05T03:06:17.409Z,721.7692
2023-05-05T03:07:20.329Z,719.5385
2023-05-05T03:08:23.262Z,712.5385
2023-05-05T03:09:26.204Z,706.6923
2023-05-05T03:10:29.166Z,702.3846
2023-05-05T03:11:32.128Z,700.0000
2023-05-05T03:12:35.124Z,699.1539
2023-05-05T03:13:38.033Z,700.8461
2023-05-05T03:14:41.021Z,700.7692
2023-05-05T03:15:43.946Z,697.8461
2023-05-05T03:16:46.943Z,693.9231
2023-05-05T03:17:49.913Z,691.4615
2023-05-05T03:18:52.918Z,687.3846
2023-05-05T03:19:55.777Z,688.2308
2023-05-05T03:20:58.713Z,691.0000
2023-05-05T03:22:01.699Z,690.2308
2023-05-05T03:23:04.633Z,690.9231
2023-05-05T03:24:07.609Z,689.0000
2023-05-05T03:25:10.790Z,689.2308
2023-05-05T03:26:13.527Z,687.2308
2023-05-05T03:27:16.509Z,684.2308
2023-05-05T03:28:19.437Z,680.2308
2023-05-05T03:29:22.425Z,676.1539
2023-05-05T03:30:25.346Z,676.3077
2023-05-05T03:31:28.400Z,676.6923
2023-05-05T03:32:31.284Z,676.6923
2023-05-05T03:33:34.230Z,681.0000
2023-05-05T03:34:37.474Z,685.6923
2023-05-05T03:35:40.137Z,692.5385
2023-05-05T03:36:43.097Z,694.0769
2023-05-05T03:37:46.096Z,693.2308
2023-05-05T03:38:49.010Z,691.3077
2023-05-05T03:39:51.979Z,688.2308
2023-05-05T03:40:54.925Z,681.9231
2023-05-05T03:41:57.915Z,682.3846
2023-05-05T03:43:00.841Z,687.6923
2023-05-05T03:44:03.807Z,692.8461
2023-05-05T03:45:06.750Z,701.0000
2023-05-05T03:46:09.729Z,701.2308
2023-05-05T03:47:12.677Z,694.3846
2023-05-05T03:48:15.696Z,686.9231
2023-05-05T03:49:18.657Z,681.0769
2023-05-05T03:50:21.618Z,680.7692
2023-05-05T03:51:24.562Z,682.1539
2023-05-05T03:52:27.517Z,683.0000
2023-05-05T03:53:30.506Z,683.2308
2023-05-05T03:54:33.470Z,681.7692
2023-05-05T03:55:36.525Z,682.1539
2023-05-05T03:56:39.374Z,681.3077
2023-05-05T03:57:42.339Z,678.7692
2023-05-05T03:58:45.276Z,675.0769
2023-05-05T03:59:48.218Z,676.2308
2023-05-05T04:00:51.179Z,682.3846
2023-05-05T04:01:54.180Z,689.3077
2023-05-05T04:02:57.187Z,693.0769
2023-05-05T04:04:00.119Z,694.3077
2023-05-05T04:05:03.007Z,699.6923
2023-05-05T04:06:06.046Z,699.9231
2023-05-05T04:07:08.973Z,697.1539
2023-05-05T04:08:11.898Z,695.7692
2023-05-05T04:09:14.847Z,692.3077
2023-05-05T04:10:17.858Z,690.1539
2023-05-05T04:11:20.750Z,688.0769
2023-05-05T04:12:23.713Z,686.2308
2023-05-05T04:13:26.701Z,686.1539
2023-05-05T04:14:29.648Z,688.9231
2023-05-05T04:15:32.586Z,689.9231
2023-05-05T04:16:35.534Z,690.6923
2023-05-05T04:17:38.541Z,691.6923
2023-05-05T04:18:41.469Z,692.9231
2023-05-05T04:19:44.446Z,692.2308
2023-05-05T04:20:47.380Z,689.7692
2023-05-05T04:21:50.550Z,691.0769
2023-05-05T04:22:53.368Z,694.2308
2023-05-05T04:23:56.290Z,695.9231
2023-05-05T04:24:59.275Z,696.2308
2023-05-05T04:26:02.165Z,695.8461
2023-05-05T04:27:05.124Z,694.3846
2023-05-05T04:28:08.061Z,693.3077
2023-05-05T04:29:11.008Z,694.8461
2023-05-05T04:30:14.026Z,696.1539
2023-05-05T04:31:16.965Z,694.8461
2023-05-05T04:32:19.875Z,694.9231
2023-05-05T04:33:22.823Z,698.1539
2023-05-05T04:34:25.758Z,701.1539
2023-05-05T04:35:28.738Z,693.7692
2023-05-05T04:36:31.670Z,689.5385
2023-05-05T04:37:34.623Z,688.7692
2023-05-05T04:38:37.648Z,679.6923
2023-05-05T04:39:40.522Z,672.8461
2023-05-05T04:40:43.452Z,672.0769
2023-05-05T04:41:46.418Z,668.0769
2023-05-05T04:42:49.368Z,666.3846
2023-05-05T04:43:52.336Z,663.6923
2023-05-05T04:44:55.266Z,665.3846
2023-05-05T04:45:58.216Z,669.7692
2023-05-05T04:47:01.170Z,682.7692
2023-05-05T04:48:04.167Z,689.6923
2023-05-05T04:49:07.040Z,693.2308
2023-05-05T04:50:10.245Z,689.1539
2023-05-05T04:51:13.029Z,681.6154
2023-05-05T04:52:15.916Z,679.3077
2023-05-05T04:53:18.840Z,679.6154
2023-05-05T04:54:21.850Z,681.0000
2023-05-05T04:55:24.763Z,681.2308
2023-05-05T04:56:27.696Z,680.0769
2023-05-05T04:57:30.654Z,679.7692
2023-05-05T04:58:33.619Z,679.3846
2023-05-05T04:59:36.530Z,679.3846
2023-05-05T05:00:39.464Z,679.2308
2023-05-05T05:01:42.439Z,680.2308
2023-05-05T05:02:45.520Z,678.8461
2023-05-05T05:03:48.419Z,681.2308
2023-05-05T05:04:51.263Z,680.1539
2023-05-05T05:05:54.247Z,681.0769
2023-05-05T05:06:59.111Z,678.0000
2023-05-05T05:08:00.135Z,678.0000
2023-05-05T05:09:03.045Z,677.3077
2023-05-05T05:10:06.214Z,677.3077
2023-05-05T05:11:08.939Z,679.0769
2023-05-05T05:12:11.895Z,675.3846
2023-05-05T05:13:14.861Z,663.0769
2023-05-05T05:14:17.830Z,660.0000
2023-05-05T05:15:20.754Z,656.1539
2023-05-05T05:16:23.741Z,656.0000
2023-05-05T05:17:26.898Z,655.2308
2023-05-05T05:18:29.579Z,655.3077
2023-05-05T05:19:32.538Z,657.7692
2023-05-05T05:20:35.596Z,660.2308
2023-05-05T05:21:38.445Z,664.4615
2023-05-05T05:22:41.433Z,665.1539
2023-05-05T05:23:44.304Z,666.6923
2023-05-05T05:24:47.260Z,663.7692
2023-05-05T05:25:50.215Z,661.2308
2023-05-05T05:26:53.144Z,664.2308
2023-05-05T05:28:08.964Z,666.0000
2023-05-05T05:28:59.033Z,668.7692
2023-05-05T05:30:02.008Z,669.6923
2023-05-05T05:31:05.127Z,667.0769
2023-05-05T05:32:07.948Z,665.6923
2023-05-05T05:33:10.906Z,664.4615
2023-05-05T05:34:13.777Z,666.2308
2023-05-05T05:35:16.783Z,669.0000
2023-05-05T05:36:19.698Z,669.0769
2023-05-05T05:37:22.726Z,668.1539
2023-05-05T05:38:25.572Z,665.8461
2023-05-05T05:39:28.576Z,661.7692
2023-05-05T05:40:31.528Z,658.0000
2023-05-05T05:41:34.485Z,648.0000
2023-05-05T05:42:37.374Z,632.7692
2023-05-05T05:43:40.324Z,618.8461
2023-05-05T05:44:43.260Z,615.0000
2023-05-05T05:45:46.202Z,609.8461
2023-05-05T05:46:49.159Z,610.2308
2023-05-05T05:47:52.186Z,612.8461
2023-05-05T05:48:55.067Z,614.5385
2023-05-05T05:49:58.132Z,614.3077
2023-05-05T05:51:00.920Z,612.3077
2023-05-05T05:52:03.854Z,611.2308
2023-05-05T05:53:06.926Z,611.5385
2023-05-05T05:54:09.770Z,611.3077
2023-05-05T05:55:12.881Z,611.4615
2023-05-05T05:56:15.822Z,609.5385
2023-05-05T05:57:18.698Z,611.3077
2023-05-05T05:58:21.569Z,613.4615
2023-05-05T05:59:24.623Z,613.2308
2023-05-05T06:00:27.553Z,614.0000
2023-05-05T06:01:30.448Z,613.4615
2023-05-05T06:02:33.473Z,615.0000
2023-05-05T06:03:36.394Z,618.7692
2023-05-05T06:04:39.324Z,621.0769
2023-05-05T06:05:42.221Z,617.8461
2023-05-05T06:06:45.213Z,614.4615
2023-05-05T06:07:48.154Z,613.3077
2023-05-05T06:08:51.065Z,613.7692
2023-05-05T06:09:53.988Z,614.5385
2023-05-05T06:10:56.938Z,614.3077
2023-05-05T06:11:59.860Z,612.9231
2023-05-05T06:13:02.840Z,613.6154
2023-05-05T06:14:05.755Z,610.0769
2023-05-05T06:15:08.753Z,606.6923
2023-05-05T06:16:11.754Z,606.2308
2023-05-05T06:17:14.663Z,604.7692
2023-05-05T06:18:17.640Z,602.4615
2023-05-05T06:19:20.488Z,596.1539
2023-05-05T06:20:23.442Z,590.6154
2023-05-05T06:21:26.471Z,585.8461
2023-05-05T06:22:29.327Z,586.0769
2023-05-05T06:23:32.337Z,587.4615
2023-05-05T06:24:35.233Z,585.7692
2023-05-05T06:25:38.202Z,580.6923
2023-05-05T06:26:41.147Z,574.3846
2023-05-05T06:27:44.092Z,569.3077
2023-05-05T06:28:47.062Z,568.6923
2023-05-05T06:29:49.983Z,568.6923
2023-05-05T06:30:53.038Z,566.4615
2023-05-05T06:31:55.910Z,565.1539
2023-05-05T06:32:58.912Z,565.1539
2023-05-05T06:34:01.926Z,568.0769
2023-05-05T06:35:04.724Z,570.9231
2023-05-05T06:36:07.860Z,571.3846
2023-05-05T06:37:10.650Z,570.4615
2023-05-05T06:38:13.584Z,571.0000
2023-05-05T06:39:16.514Z,570.3846
2023-05-05T06:40:19.611Z,568.1539
2023-05-05T06:41:22.411Z,560.0769
2023-05-05T06:42:25.432Z,557.8461
2023-05-05T06:43:28.306Z,556.3846
2023-05-05T06:44:31.463Z,553.3846
2023-05-05T06:45:34.163Z,549.3846
2023-05-05T06:46:37.150Z,547.3077
2023-05-05T06:47:40.154Z,545.3846
2023-05-05T06:48:43.031Z,544.8461
2023-05-05T06:49:45.990Z,543.1539
2023-05-05T06:50:49.144Z,544.4615
2023-05-05T06:51:51.998Z,545.8461
2023-05-05T06:52:54.838Z,547.0769
2023-05-05T06:53:57.796Z,547.3077
2023-05-05T06:55:00.760Z,549.7692
2023-05-05T06:56:03.686Z,552.7692
2023-05-05T06:57:06.724Z,559.9231
2023-05-05T06:58:09.677Z,563.4615
2023-05-05T06:59:12.566Z,567.6154
2023-05-05T07:00:15.516Z,563.4615
2023-05-05T07:01:18.533Z,562.3846
2023-05-05T07:02:21.356Z,560.3846
2023-05-05T07:03:24.327Z,564.1539
2023-05-05T07:04:27.279Z,571.8461
2023-05-05T07:05:30.218Z,576.5385
2023-05-05T07:06:33.207Z,579.6154
2023-05-05T07:07:36.088Z,577.0000
2023-05-05T07:08:39.043Z,574.7692
2023-05-05T07:09:41.977Z,569.0000
2023-05-05T07:10:44.966Z,566.6923
2023-05-05T07:11:47.884Z,564.9231
2023-05-05T07:12:50.811Z,562.2308
2023-05-05T07:13:53.888Z,561.2308
2023-05-05T07:14:56.778Z,562.7692
2023-05-05T07:15:59.787Z,564.7692
2023-05-05T07:17:02.601Z,565.9231
2023-05-05T07:18:05.654Z,562.3077
2023-05-05T07:19:08.500Z,567.3846
2023-05-05T07:20:11.470Z,577.6154
2023-05-05T07:21:14.416Z,579.2308
2023-05-05T07:22:17.364Z,579.0000
2023-05-05T07:23:20.273Z,572.8461
2023-05-05T07:24:23.272Z,573.5385
2023-05-05T07:25:26.204Z,584.4615
2023-05-05T07:26:29.178Z,582.9231
2023-05-05T07:27:32.056Z,580.0769
2023-05-05T07:28:35.017Z,573.4615
2023-05-05T07:29:37.975Z,562.2308
2023-05-05T07:30:40.888Z,553.0769
2023-05-05T07:31:43.904Z,561.1539
2023-05-05T07:32:46.825Z,565.5385
2023-05-05T07:33:49.837Z,571.5385
2023-05-05T07:34:52.727Z,572.3077
2023-05-05T07:35:55.623Z,572.0000
2023-05-05T07:36:58.599Z,570.8461
2023-05-05T07:38:01.541Z,573.3846
2023-05-05T07:39:04.534Z,570.4615
2023-05-05T07:40:07.577Z,572.1539
2023-05-05T07:41:10.380Z,572.2308
2023-05-05T07:42:13.292Z,571.3846
2023-05-05T07:43:16.357Z,568.7692
2023-05-05T07:44:19.192Z,570.0769
2023-05-05T07:45:22.152Z,569.7692
2023-05-05T07:46:25.148Z,568.5385
2023-05-05T07:47:28.195Z,570.0769
2023-05-05T07:48:31.024Z,571.8461
2023-05-05T07:49:34.018Z,570.2308
2023-05-05T07:50:36.907Z,563.6923
2023-05-05T07:51:39.843Z,559.4615
2023-05-05T07:52:46.820Z,554.6923
2023-05-05T07:53:45.805Z,552.2308
2023-05-05T07:54:48.677Z,550.3846
2023-05-05T07:55:51.742Z,545.8461
2023-05-05T07:56:54.653Z,544.3077
2023-05-05T07:57:57.590Z,544.1539
2023-05-05T07:59:00.557Z,541.3846
2023-05-05T08:00:03.501Z,541.0000
2023-05-05T08:01:06.483Z,541.3846
2023-05-05T08:02:09.634Z,545.2308
2023-05-05T08:03:12.552Z,545.8461
2023-05-05T08:04:15.335Z,547.8461
2023-05-05T08:05:18.253Z,546.0769
2023-05-05T08:06:21.198Z,546.7692
2023-05-05T08:07:24.184Z,544.9231
2023-05-05T08:08:27.097Z,538.8461
2023-05-05T08:09:30.055Z,539.3077
2023-05-05T08:10:33.002Z,538.0000
2023-05-05T08:11:35.956Z,536.8461
2023-05-05T08:12:39.004Z,533.9231
2023-05-05T08:13:41.888Z,527.1539
2023-05-05T08:14:44.825Z,518.3846
2023-05-05T08:15:47.858Z,516.4615
2023-05-05T08:16:50.705Z,519.2308
2023-05-05T08:17:53.711Z,518.2308
2023-05-05T08:18:56.675Z,518.2308
2023-05-05T08:19:59.569Z,520.8461
2023-05-05T08:21:02.537Z,523.6154
2023-05-05T08:22:05.473Z,523.7692
2023-05-05T08:23:08.456Z,524.9231
2023-05-05T08:24:11.406Z,525.3846
2023-05-05T08:25:14.336Z,524.7692
2023-05-05T08:26:17.413Z,523.8461
2023-05-05T08:27:20.225Z,523.0769
2023-05-05T08:28:23.235Z,525.4615
2023-05-05T08:29:26.205Z,529.6154
2023-05-05T08:30:29.082Z,528.6154
2023-05-05T08:31:32.074Z,528.4615
2023-05-05T08:32:35.170Z,522.8461
2023-05-05T08:33:37.965Z,516.5385
2023-05-05T08:34:41.009Z,513.5385
2023-05-05T08:35:43.846Z,512.3846
2023-05-05T08:36:46.807Z,511.4615
2023-05-05T08:37:49.743Z,516.3846
2023-05-05T08:38:52.688Z,519.5385
2023-05-05T08:39:55.643Z,521.9231
2023-05-05T08:40:58.698Z,517.5385
2023-05-05T08:42:01.653Z,514.0769
2023-05-05T08:43:04.522Z,511.1538
2023-05-05T08:44:07.456Z,509.7692
2023-05-05T08:45:10.926Z,509.3846
2023-05-05T08:46:13.554Z,507.0000
2023-05-05T08:47:16.357Z,504.1538
2023-05-05T08:48:19.367Z,509.7692
2023-05-05T08:49:22.378Z,511.6923
2023-05-05T08:50:25.267Z,512.6154
2023-05-05T08:51:28.133Z,511.7692
2023-05-05T08:52:31.174Z,507.4615
2023-05-05T08:53:34.039Z,501.7692
2023-05-05T08:54:36.981Z,500.0769
2023-05-05T08:55:39.965Z,499.1538
2023-05-05T08:56:42.912Z,499.7692
2023-05-05T08:57:45.830Z,499.3077
2023-05-05T08:58:48.802Z,498.6923
2023-05-05T08:59:51.769Z,500.2308
2023-05-05T09:00:54.757Z,499.9231
2023-05-05T09:01:57.690Z,500.5385
2023-05-05T09:03:00.854Z,498.6923
2023-05-05T09:04:03.572Z,499.9231
2023-05-05T09:05:06.825Z,502.3077
2023-05-05T09:06:09.641Z,502.1538
2023-05-05T09:07:12.459Z,501.2308
2023-05-05T09:08:15.422Z,510.6923
2023-05-05T09:09:18.339Z,518.0000
2023-05-05T09:10:21.391Z,513.6154
2023-05-05T09:11:24.280Z,514.6154
2023-05-05T09:12:27.183Z,508.6923
2023-05-05T09:13:30.142Z,500.1538
2023-05-05T09:14:33.083Z,491.4615
2023-05-05T09:15:36.076Z,486.0769
2023-05-05T09:16:38.969Z,485.6154
2023-05-05T09:17:42.071Z,484.0769
2023-05-05T09:18:44.878Z,483.1538
2023-05-05T09:19:47.835Z,484.2308
2023-05-05T09:20:50.799Z,484.7692
2023-05-05T09:21:53.794Z,484.0000
2023-05-05T09:22:56.717Z,484.6923
2023-05-05T09:24:04.919Z,490.2308
2023-05-05T09:25:02.614Z,493.3077
2023-05-05T09:26:05.572Z,490.4615
2023-05-05T09:27:08.539Z,488.0769
2023-05-05T09:28:11.501Z,486.8462
2023-05-05T09:29:14.417Z,486.4615
2023-05-05T09:30:17.569Z,484.6154
2023-05-05T09:31:20.371Z,481.5385
2023-05-05T09:32:23.322Z,479.3077
2023-05-05T09:33:26.534Z,482.0000
2023-05-05T09:34:29.186Z,480.9231
2023-05-05T09:35:32.141Z,481.0769
2023-05-05T09:36:35.118Z,480.6154
2023-05-05T09:37:38.187Z,478.0769
2023-05-05T09:38:41.002Z,476.1538
2023-05-05T09:39:43.950Z,475.9231
2023-05-05T09:40:46.900Z,477.1538
2023-05-05T09:41:49.910Z,474.4615
2023-05-05T09:42:52.812Z,469.1538
2023-05-05T09:43:55.746Z,464.7692
2023-05-05T09:45:00.042Z,461.3077
2023-05-05T09:46:01.764Z,460.6154
2023-05-05T09:47:09.464Z,458.7692
2023-05-05T09:48:07.585Z,459.9231
2023-05-05T09:49:10.554Z,459.7692
2023-05-05T09:50:13.495Z,456.8462
2023-05-05T09:51:16.500Z,456.3846
2023-05-05T09:52:19.409Z,455.8462
2023-05-05T09:53:22.447Z,453.1538
2023-05-05T09:54:25.338Z,452.3846
2023-05-05T09:55:28.237Z,450.3077
2023-05-05T09:56:31.199Z,446.8462
2023-05-05T09:57:34.164Z,447.6923
2023-05-05T09:58:37.173Z,449.3077
2023-05-05T09:59:40.147Z,446.8462
2023-05-05T10:00:43.025Z,444.3077
2023-05-05T10:01:45.997Z,445.3077
2023-05-05T10:02:48.955Z,445.6923
2023-05-05T10:03:51.902Z,446.4615
2023-05-05T10:04:54.873Z,448.4615
2023-05-05T10:05:57.824Z,449.0000
2023-05-05T10:07:00.754Z,447.7692
2023-05-05T10:08:03.722Z,449.3077
2023-05-05T10:09:06.636Z,448.3846
2023-05-05T10:10:09.994Z,445.9231
2023-05-05T10:11:12.590Z,443.8462
2023-05-05T10:12:15.551Z,441.3846
2023-05-05T10:13:18.652Z,439.6923
2023-05-05T10:14:21.399Z,436.8462
2023-05-05T10:15:24.521Z,429.3077
2023-05-05T10:16:28.613Z,427.0769
2023-05-05T10:17:30.297Z,425.0000
2023-05-05T10:18:33.226Z,423.3077
2023-05-05T10:19:36.204Z,418.6923
2023-05-05T10:20:39.180Z,417.5385
2023-05-05T10:21:42.324Z,413.6154
2023-05-05T10:22:45.055Z,412.2308
2023-05-05T10:23:48.033Z,410.3846
2023-05-05T10:24:50.914Z,412.6154
2023-05-05T10:25:53.899Z,411.7692
2023-05-05T10:26:56.875Z,411.4615
2023-05-05T10:27:59.785Z,408.6923
2023-05-05T10:29:02.743Z,406.3077
2023-05-05T10:30:05.791Z,407.4615
2023-05-05T10:31:23.955Z,406.6923
2023-05-05T10:32:33.577Z,407.3846
2023-05-05T10:33:31.207Z,407.6154
2023-05-05T10:34:17.553Z,405.4615
2023-05-05T10:35:20.485Z,408.3077
2023-05-05T10:36:24.472Z,406.9231
2023-05-05T10:37:26.415Z,405.1538
2023-05-05T10:38:29.367Z,405.8462
2023-05-05T10:39:32.316Z,405.0769
2023-05-05T10:40:35.429Z,403.6923
2023-05-05T10:41:38.246Z,402.7692
2023-05-05T10:42:41.191Z,403.9231
2023-05-05T10:43:44.148Z,449.6923
2023-05-05T10:44:47.151Z,474.0000
2023-05-05T10:45:50.181Z,454.7692
2023-05-05T10:46:53.042Z,426.7692
2023-05-05T10:47:56.026Z,418.5385
2023-05-05T10:48:58.981Z,404.6923
2023-05-05T10:50:01.934Z,408.9231
2023-05-05T10:51:04.918Z,412.6154
2023-05-05T10:52:07.952Z,417.3077
2023-05-05T10:53:10.828Z,415.0769
2023-05-05T10:54:13.836Z,410.9231
2023-05-05T10:55:16.765Z,403.3077
2023-05-05T10:56:19.790Z,394.1538
2023-05-05T10:57:22.655Z,395.3846
2023-05-05T10:58:25.812Z,394.6923
2023-05-05T10:59:28.680Z,392.6923
2023-05-05T11:00:31.811Z,394.6154
2023-05-05T11:01:34.940Z,396.0769
2023-05-05T11:02:38.008Z,398.1538
2023-05-05T11:03:40.534Z,400.4615
2023-05-05T11:04:43.511Z,402.5385
2023-05-05T11:05:46.408Z,407.0000
2023-05-05T11:06:49.636Z,405.1538
2023-05-05T11:07:52.377Z,403.6923
2023-05-05T11:08:55.447Z,400.7692
2023-05-05T11:09:58.284Z,398.2308
2023-05-05T11:11:01.287Z,398.9231
2023-05-05T11:12:04.348Z,402.6154
2023-05-05T11:13:07.184Z,402.7692
2023-05-05T11:14:10.110Z,400.1538
2023-05-05T11:15:13.084Z,399.0769
2023-05-05T11:16:16.067Z,397.6923
2023-05-05T11:17:19.056Z,396.4615
2023-05-05T11:18:21.978Z,395.3846
2023-05-05T11:19:24.902Z,400.3077
2023-05-05T11:20:27.897Z,414.7692
2023-05-05T11:21:30.838Z,415.9231
2023-05-05T11:22:33.803Z,404.6923
2023-05-05T11:23:36.781Z,399.6923
2023-05-05T11:24:39.746Z,398.9231
2023-05-05T11:25:42.691Z,403.7692
2023-05-05T11:26:45.648Z,406.1538
2023-05-05T11:27:48.689Z,405.6923
2023-05-05T11:28:51.616Z,407.6923
2023-05-05T11:29:54.546Z,413.8462
2023-05-05T11:30:58.229Z,422.2308
2023-05-05T11:32:00.457Z,424.0769
2023-05-05T11:33:03.488Z,426.7692
2023-05-05T11:34:06.368Z,429.0769
2023-05-05T11:35:09.358Z,436.4615
2023-05-05T11:36:12.347Z,441.2308
2023-05-05T11:37:15.252Z,439.7692
2023-05-05T11:38:18.205Z,436.1538
2023-05-05T11:39:21.182Z,437.6154
2023-05-05T11:40:24.135Z,437.1538
2023-05-05T11:41:27.114Z,435.4615
2023-05-05T11:42:30.039Z,433.6923
2023-05-05T11:43:33.129Z,436.4615
2023-05-05T11:44:36.132Z,447.3077
2023-05-05T11:45:38.942Z,447.2308
2023-05-05T11:46:41.871Z,443.6923
2023-05-05T11:47:44.905Z,448.4615
2023-05-05T11:48:47.791Z,446.3846
2023-05-05T11:49:52.096Z,448.0769
2023-05-05T11:51:09.587Z,453.6364
2023-05-05T11:52:04.793Z,462.5000
2023-05-05T11:52:59.621Z,452.4167
2023-05-05T11:54:02.669Z,443.9231
2023-05-05T11:55:05.545Z,442.6154
2023-05-05T11:56:08.698Z,457.8462
2023-05-05T11:57:11.460Z,458.3846
2023-05-05T11:58:14.468Z,471.4615
2023-05-05T11:59:17.416Z,499.0769
2023-05-05T12:00:20.501Z,488.6154
2023-05-05T12:01:23.330Z,459.1538
2023-05-05T12:02:26.381Z,445.6154
2023-05-05T12:03:29.392Z,435.3077
2023-05-05T12:04:32.393Z,430.2308
2023-05-05T12:05:36.714Z,426.6923
2023-05-05T12:06:38.138Z,426.6923
2023-05-05T12:07:41.102Z,432.4615
2023-05-05T12:08:44.055Z,459.7692
2023-05-05T12:09:47.043Z,487.0769
2023-05-05T12:10:50.009Z,469.7692
2023-05-05T12:11:52.941Z,444.5385
2023-05-05T12:12:56.107Z,436.9231
2023-05-05T12:13:58.864Z,439.8462
2023-05-05T12:15:01.894Z,439.0769
2023-05-05T12:16:04.858Z,437.0769
2023-05-05T12:17:07.774Z,446.0000
2023-05-05T12:18:10.737Z,443.5385
2023-05-05T12:19:13.701Z,436.6923